Flight Track Log - Related Links

Times and Time Zones

All times are in EDT time to prevent confusion due to time zone crossing. See the GJS3710 flight status page for this flight to view local times or setup timezone preferences in your user account.

Time Position Orientation Groundspeed Altitude Reporting Facility
EDT Latitude Longitude Course Direction KTS MPH feet Rate Location/Type
Mon 06:25:56 PM 41.8753 -91.6489 252° West 167 192 4,000  Level Chicago Center
Mon 06:26:58 PM 41.8392 -91.5986 134° Southeast 207 238 6,000 1,887 Climbing Chicago Center
Mon 06:28:00 PM 41.8061 -91.6569 233° Southwest 228 262 7,900 1,935 Climbing Chicago Center
Mon 06:29:02 PM 41.8017 -91.7811 267° West 277 319 10,000 1,984 Climbing Chicago Center
Mon 06:30:04 PM 41.7981 -91.8997 268° West 313 360 12,000 2,129 Climbing Chicago Center
Mon 06:31:00 PM 41.8710 -91.7658 252° West  Level FlightAware Approximate
Mon 06:31:06 PM 41.7944 -92.0194 268° West 320 368 14,400  Level Chicago Center
Mon 06:32:08 PM 41.7908 -92.1375 268° West 320 368 16,300 1,694 Climbing Chicago Center
Mon 06:33:10 PM 41.7858 -92.2600 267° West 326 375 17,900 1,839 Climbing Chicago Center
Mon 06:34:12 PM 41.7794 -92.4136 267° West 343 395 20,100 1,839 Climbing Chicago Center
Mon 06:35:14 PM 41.7750 -92.5475 267° West 353 406 21,700 1,393 Climbing Chicago Center
Mon 06:36:04 PM 41.7717 -92.6569 268° West 358 412 22,700 1,500 Climbing Minneapolis Center
Mon 06:37:06 PM 41.7669 -92.7919 267° West 361 415 24,500 1,694 Climbing Minneapolis Center
Mon 06:38:08 PM 41.7600 -92.9308 266° West 362 417 26,200 1,512 Climbing Minneapolis Center
Mon 06:39:09 PM 41.7547 -93.0639 267° West 362 417 27,600 1,268 Climbing Minneapolis Center
Mon 06:40:11 PM 41.7486 -93.1975 267° West 362 417 28,800 1,016 Climbing Minneapolis Center
Mon 06:41:13 PM 41.7403 -93.3644 266° West 374 430 29,700 683 Climbing Minneapolis Center
Mon 06:42:14 PM 41.7331 -93.5111 266° West 392 451 30,200 537 Climbing Minneapolis Center
Mon 06:43:16 PM 41.7133 -93.6594 260° West 415 478 30,800 629 Climbing Minneapolis Center
Mon 06:44:18 PM 41.6619 -93.8008 244° Southwest 432 497 31,500 780 Climbing Minneapolis Center
Mon 06:45:19 PM 41.6444 -93.9542 261° West 428 493 32,400 1,024 Climbing Minneapolis Center
Mon 06:46:21 PM 41.6267 -94.1408 263° West 428 493 33,600 919 Climbing Minneapolis Center
Mon 06:47:23 PM 41.6103 -94.2789 261° West 428 493 34,300 732 Climbing Minneapolis Center
Mon 06:48:24 PM 41.5936 -94.4361 262° West 428 493 35,100 829 Climbing Minneapolis Center
Mon 06:49:26 PM 41.5519 -94.6200 253° West 429 494 36,000 435 Climbing Minneapolis Center
Mon 06:50:28 PM 41.5167 -94.7758 253° West 432 497 36,000  Level Minneapolis Center
Mon 06:51:29 PM 41.4797 -94.9339 253° West 445 512 36,000  Level Minneapolis Center
Mon 06:52:31 PM 41.4419 -95.0944 253° West 450 518 36,000  Level Minneapolis Center
Mon 06:53:33 PM 41.4044 -95.2567 253° West 456 525 36,000  Level Minneapolis Center
Mon 06:54:34 PM 41.3664 -95.4183 253° West 457 526 36,000  Level Minneapolis Center
Mon 06:55:36 PM 41.3278 -95.5764 252° West 454 522 36,000  Level Minneapolis Center
Mon 06:56:38 PM 41.2903 -95.7378 253° West 445 512 36,000  Level Minneapolis Center
Mon 06:57:40 PM 41.2531 -95.8908 252° West 439 505 36,000  Level Minneapolis Center
Mon 06:58:41 PM 41.2078 -96.0747 252° West 438 504 36,000  Level Minneapolis Center
Mon 06:59:43 PM 41.1708 -96.2261 252° West 435 501 36,000  Level Minneapolis Center
Mon 07:00:45 PM 41.1317 -96.3842 252° West 434 499 36,000  Level Minneapolis Center
Mon 07:01:47 PM 41.0939 -96.5350 252° West 433 498 36,000  Level Minneapolis Center
Mon 07:02:48 PM 41.0564 -96.6839 252° West 429 494 36,000  Level Minneapolis Center
Mon 07:03:50 PM 41.0197 -96.8300 252° West 422 486 36,000  Level Minneapolis Center
Mon 07:04:52 PM 40.9833 -96.9742 252° West 418 481 36,000  Level Minneapolis Center
Mon 07:05:54 PM 40.9467 -97.1178 251° West 416 479 36,000  Level Minneapolis Center
Mon 07:06:56 PM 40.9089 -97.2603 251° West 415 478 36,000  Level Minneapolis Center
Mon 07:07:58 PM 40.8664 -97.4278 252° West 414 476 36,000  Level Minneapolis Center
Mon 07:08:59 PM 40.8286 -97.5717 251° West 414 476 36,000  Level Minneapolis Center
Mon 07:10:01 PM 40.7922 -97.7181 252° West 414 476 36,000  Level Minneapolis Center
Mon 07:11:03 PM 40.7542 -97.8619 251° West 414 476 36,000  Level Minneapolis Center
Mon 07:12:05 PM 40.7158 -98.0072 251° West 414 476 36,000  Level Minneapolis Center
Mon 07:13:07 PM 40.6772 -98.1514 251° West 415 478 36,000  Level Minneapolis Center
Mon 07:14:08 PM 40.6314 -98.3247 251° West 415 478 36,000  Level Minneapolis Center
Mon 07:15:10 PM 40.6097 -98.4764 259° West 419 482 36,000  Level Minneapolis Center
Mon 07:16:12 PM 40.6122 -98.6308 271° West 421 484 36,000  Level Minneapolis Center
Mon 07:17:14 PM 40.5761 -98.7767 252° West 423 487 36,000  Level Minneapolis Center
Mon 07:18:16 PM 40.5447 -98.9233 254° West 418 481 36,000  Level Minneapolis Center
Mon 07:19:17 PM 40.5194 -99.0708 257° West 417 480 36,000  Level Minneapolis Center
Mon 07:19:49 PM 40.5056 -99.1583 258° West 413 475 36,000  Level Denver Center
Mon 07:20:51 PM 40.4992 -99.3081 267° West 409 471 36,000  Level Denver Center
Mon 07:21:53 PM 40.5100 -99.4578 275° West 410 472 36,000  Level Denver Center
Mon 07:22:55 PM 40.5194 -99.6081 275° West 410 472 36,000  Level Denver Center
Mon 07:23:57 PM 40.5192 -99.7564 270° West 409 471 36,000  Level Denver Center
Mon 07:24:58 PM 40.5203 -99.9200 271° West 409 471 36,000  Level Denver Center
Mon 07:26:00 PM 40.5206 -100.0622 270° West 408 470 36,000  Level Denver Center
Mon 07:27:02 PM 40.5217 -100.2297 271° West 409 471 36,000  Level Denver Center
Mon 07:28:04 PM 40.5206 -100.3719 269° West 408 470 36,000  Level Denver Center
Mon 07:29:05 PM 40.5200 -100.5383 270° West 407 468 36,000 -244 Level Denver Center
Mon 07:30:07 PM 40.5194 -100.6811 270° West 407 468 35,500 -919 Descending Denver Center
Mon 07:31:09 PM 40.5194 -100.8236 270° West 407 468 34,100 -726 Descending Denver Center
Mon 07:32:11 PM 40.5189 -100.9933 270° West 411 473 34,000 -48 Descending Denver Center
Mon 07:33:13 PM 40.5189 -101.1364 270° West 410 472 34,000  Level Denver Center
Mon 07:34:14 PM 40.5178 -101.3000 270° West 404 465 34,000  Level Denver Center
Mon 07:35:16 PM 40.5164 -101.4364 269° West 392 451 34,000  Level Denver Center
Mon 07:36:18 PM 40.5161 -101.5717 270° West 390 449 34,000  Level Denver Center
Mon 07:37:20 PM 40.5142 -101.7283 269° West 387 445 34,000  Level Denver Center
Mon 07:38:22 PM 40.5133 -101.8619 270° West 386 444 34,000  Level Denver Center
Mon 07:39:24 PM 40.5092 -102.0186 268° West 386 444 34,000  Level Denver Center
Mon 07:40:25 PM 40.5069 -102.1544 269° West 386 444 34,000  Level Denver Center
Mon 07:41:27 PM 40.4969 -102.3103 265° West 387 445 34,000  Level Denver Center
Mon 07:42:29 PM 40.4708 -102.4394 255° West 384 442 34,000 -242 Level Denver Center
Mon 07:43:31 PM 40.4425 -102.5889 256° West 380 437 33,500 -774 Descending Denver Center
Mon 07:44:33 PM 40.4211 -102.7086 257° West 394 453 32,400 -1,210 Descending Denver Center
Mon 07:45:35 PM 40.3883 -102.8811 256° West 405 466 31,000 -1,403 Descending Denver Center
Mon 07:46:37 PM 40.3622 -103.0217 256° West 400 460 29,500 -1,452 Descending Denver Center
Mon 07:47:39 PM 40.3350 -103.1567 255° West 389 448 28,000 -1,561 Descending Denver Center
Mon 07:48:40 PM 40.3094 -103.2894 256° West 382 440 26,300 -1,756 Descending Denver Center
Mon 07:49:42 PM 40.2847 -103.4208 256° West 375 432 24,400 -1,984 Descending Denver Center
Mon 07:50:44 PM 40.2608 -103.5428 256° West 351 404 22,200 -2,177 Descending Denver Center
Mon 07:51:46 PM 40.2333 -103.6825 256° West 334 384 19,900 -1,935 Descending Denver Center
Mon 07:52:48 PM 40.2114 -103.7897 255° West 323 372 18,200 -1,548 Descending Denver Center
Mon 07:53:50 PM 40.2064 -103.9042 267° West 298 343 16,700 -1,355 Descending Denver Center
Mon 07:54:52 PM 40.2147 -104.0117 276° West 298 343 15,400 -1,306 Descending Denver Center
Mon 07:55:54 PM 40.2267 -104.1292 278° West 300 345 14,000 -1,210 Descending Denver Center
Mon 07:56:56 PM 40.2350 -104.2311 276° West 287 330 12,900 -968 Descending Denver Center
Mon 07:57:58 PM 40.2428 -104.3347 276° West 271 312 12,000 -435 Descending Denver Center
Mon 07:59:00 PM 40.2275 -104.4178 256° West 241 277 12,000 -242 Level Denver Center
Mon 08:00:02 PM 40.1839 -104.4894 231° Southwest 240 276 11,500 -871 Descending Denver Center
Mon 08:01:04 PM 40.1317 -104.5378 215° Southwest 233 268 10,200 -1,355 Descending Denver Center
Mon 08:02:06 PM 40.0756 -104.5928 217° Southwest 233 268 8,700 -1,306 Descending Denver Center
Mon 08:03:08 PM 40.0264 -104.6436 218° Southwest 230 265 7,500 -873 Descending Denver Center
Mon 08:04:44 PM 39.9500 -104.6833 202° Southwest 169 194 6,400 -720 Descending Denver TRACON
Mon 08:05:38 PM 39.9167 -104.6833 180° South 154 177 5,700 -659 Descending Denver TRACON
Mon 08:06:15 PM 39.8917 -104.6867 186° South 155 178 5,400 -486 Descending Denver Center
Mon 08:08:00 PM 39.8617 -104.6732 180° South  Level Estimated
Mon 08:15:00 PM 39.8617 -104.6732 180° South  Level Estimated
Mon 08:16:00 PM 39.8617 -104.6732 180° South  Level Estimated

Login

Don't have an account? Register now (free) for customized features, flight alerts, and more!